createdAt,value
2022-09-03T00:01:28.755Z,99.46
2022-09-03T00:04:30.065Z,100.00
2022-09-03T00:07:28.161Z,100.00
2022-09-03T00:10:27.776Z,100.00
2022-09-03T00:13:24.249Z,100.00
2022-09-03T00:16:21.598Z,100.00
2022-09-03T00:19:12.423Z,100.00
2022-09-03T00:22:17.298Z,100.00
2022-09-03T00:25:14.566Z,100.00
2022-09-03T00:28:13.565Z,100.00
2022-09-03T00:31:18.294Z,100.00
2022-09-03T00:34:18.213Z,100.00
2022-09-03T00:37:15.298Z,100.00
2022-09-03T00:40:16.982Z,100.00
2022-09-03T00:43:19.690Z,100.00
2022-09-03T00:46:24.999Z,100.00
2022-09-03T00:49:36.369Z,100.00
2022-09-03T00:52:45.864Z,100.00
2022-09-03T00:55:51.061Z,100.00
2022-09-03T00:59:05.938Z,100.00
2022-09-03T01:02:13.380Z,100.00
2022-09-03T01:05:12.032Z,100.00
2022-09-03T01:08:32.160Z,100.00
2022-09-03T01:11:35.172Z,100.00
2022-09-03T01:14:44.209Z,100.00
2022-09-03T01:17:55.695Z,100.00
2022-09-03T01:21:06.936Z,100.00
2022-09-03T01:24:47.252Z,100.00
2022-09-03T01:27:52.749Z,100.00
2022-09-03T01:30:49.263Z,100.00
2022-09-03T01:33:48.833Z,100.00
2022-09-03T01:36:52.770Z,100.00
2022-09-03T01:40:02.123Z,100.00
2022-09-03T01:43:10.563Z,100.00
2022-09-03T01:46:07.821Z,100.00
2022-09-03T01:49:12.863Z,100.00
2022-09-03T01:52:07.422Z,100.00
2022-09-03T01:55:13.275Z,100.00
2022-09-03T01:58:12.378Z,100.00
2022-09-03T02:01:08.751Z,100.00
2022-09-03T02:04:00.611Z,100.00
2022-09-03T02:06:53.030Z,100.00
2022-09-03T02:09:43.470Z,100.00
2022-09-03T02:12:38.065Z,100.00
2022-09-03T02:15:31.316Z,100.00
2022-09-03T02:18:25.612Z,100.00
2022-09-03T02:21:20.088Z,100.00
2022-09-03T02:24:10.357Z,100.00
2022-09-03T02:27:00.996Z,100.00
2022-09-03T02:29:50.776Z,100.00
2022-09-03T02:32:39.974Z,100.00
2022-09-03T02:35:30.013Z,100.00
2022-09-03T02:38:22.437Z,100.00
2022-09-03T02:41:15.105Z,100.00
2022-09-03T02:44:13.963Z,100.00
2022-09-03T02:47:06.978Z,100.00
2022-09-03T02:49:56.091Z,100.00
2022-09-03T02:52:45.254Z,100.00
2022-09-03T02:55:34.654Z,100.00
2022-09-03T02:58:23.923Z,100.00
2022-09-03T03:01:19.651Z,100.00
2022-09-03T03:04:13.385Z,100.00
2022-09-03T03:07:02.631Z,100.00
2022-09-03T03:09:51.988Z,100.00
2022-09-03T03:12:41.175Z,100.00
2022-09-03T03:15:30.325Z,100.00
2022-09-03T03:18:20.856Z,100.00
2022-09-03T03:21:12.947Z,100.00
2022-09-03T03:24:05.162Z,100.00
2022-09-03T03:26:59.279Z,100.00
2022-09-03T03:29:48.455Z,100.00
2022-09-03T03:32:38.201Z,100.00
2022-09-03T03:35:28.850Z,100.00
2022-09-03T03:38:18.215Z,100.00
2022-09-03T03:41:12.320Z,100.00
2022-09-03T03:44:04.016Z,100.00
2022-09-03T03:46:53.483Z,100.00
2022-09-03T03:49:42.581Z,100.00
2022-09-03T03:52:33.169Z,100.00
2022-09-03T03:55:22.850Z,100.00
2022-09-03T03:58:16.199Z,100.00
2022-09-03T04:01:09.059Z,100.00
2022-09-03T04:04:00.614Z,100.00
2022-09-03T04:06:49.882Z,100.00
2022-09-03T04:09:40.497Z,100.00
2022-09-03T04:12:29.619Z,100.00
2022-09-03T04:15:18.900Z,100.00
2022-09-03T04:18:08.478Z,100.00
2022-09-03T04:21:04.171Z,100.00
2022-09-03T04:23:55.172Z,100.00
2022-09-03T04:26:47.716Z,100.00
2022-09-03T04:29:36.914Z,100.00
2022-09-03T04:32:44.418Z,100.00
2022-09-03T04:35:34.177Z,100.00
2022-09-03T04:38:26.545Z,100.00
2022-09-03T04:41:18.103Z,100.00
2022-09-03T04:44:08.761Z,100.00
2022-09-03T04:46:57.975Z,100.00
2022-09-03T04:49:47.174Z,100.00
2022-09-03T04:52:36.462Z,100.00
2022-09-03T04:55:25.832Z,100.00
2022-09-03T04:58:15.015Z,100.00
2022-09-03T05:01:11.274Z,100.00
2022-09-03T05:04:02.301Z,100.00
2022-09-03T05:06:51.492Z,100.00
2022-09-03T05:09:40.637Z,100.00
2022-09-03T05:12:31.751Z,100.00
2022-09-03T05:15:20.844Z,100.00
2022-09-03T05:18:11.341Z,100.00
2022-09-03T05:21:01.760Z,100.00
2022-09-03T05:23:52.908Z,100.00
2022-09-03T05:26:42.200Z,100.00
2022-09-03T05:29:31.322Z,100.00
2022-09-03T05:32:20.527Z,100.00
2022-09-03T05:35:11.945Z,100.00
2022-09-03T05:38:01.741Z,100.00
2022-09-03T05:40:50.905Z,100.00
2022-09-03T05:43:43.033Z,100.00
2022-09-03T05:46:37.725Z,100.00
2022-09-03T05:49:26.925Z,100.00
2022-09-03T05:52:19.235Z,100.00
2022-09-03T05:55:12.864Z,100.00
2022-09-03T05:58:02.711Z,100.00
2022-09-03T06:00:51.923Z,100.00
2022-09-03T06:03:41.852Z,100.00
2022-09-03T06:06:33.716Z,100.00
2022-09-03T06:09:24.496Z,100.00
2022-09-03T06:12:13.638Z,100.00
2022-09-03T06:15:02.962Z,100.00
2022-09-03T06:17:52.174Z,100.00
2022-09-03T06:20:41.415Z,100.00
2022-09-03T06:23:32.122Z,100.00
2022-09-03T06:26:22.891Z,100.00
2022-09-03T06:29:12.514Z,100.00
2022-09-03T06:32:02.206Z,100.00
2022-09-03T06:34:51.442Z,100.00
2022-09-03T06:37:41.167Z,100.00
2022-09-03T06:40:30.747Z,100.00
2022-09-03T06:43:21.433Z,100.00
2022-09-03T06:46:13.506Z,100.00
2022-09-03T06:49:02.914Z,100.00
2022-09-03T06:51:52.333Z,100.00
2022-09-03T06:54:41.595Z,100.00
2022-09-03T06:57:30.736Z,100.00
2022-09-03T07:00:21.789Z,100.00
2022-09-03T07:03:10.867Z,100.00
2022-09-03T07:06:02.662Z,100.00
2022-09-03T07:08:51.901Z,100.00
2022-09-03T07:11:47.137Z,100.00
2022-09-03T07:14:36.490Z,100.00
2022-09-03T07:17:27.004Z,100.00
2022-09-03T07:20:16.327Z,100.00
2022-09-03T07:23:05.598Z,100.00
2022-09-03T07:25:56.979Z,100.00
2022-09-03T07:28:47.470Z,100.00
2022-09-03T07:31:41.244Z,98.48
2022-09-03T07:34:31.906Z,95.08
2022-09-03T07:37:21.289Z,93.29
2022-09-03T07:40:11.613Z,94.20
2022-09-03T07:43:03.460Z,91.20
2022-09-03T07:45:52.826Z,92.23
2022-09-03T07:48:42.293Z,88.53
2022-09-03T07:51:37.346Z,90.76
2022-09-03T07:54:27.420Z,87.27
2022-09-03T07:57:16.808Z,85.83
2022-09-03T08:00:07.862Z,86.37
2022-09-03T08:02:58.082Z,86.90
2022-09-03T08:05:47.608Z,82.37
2022-09-03T08:08:39.616Z,85.75
2022-09-03T08:11:31.353Z,82.21
2022-09-03T08:14:20.642Z,82.16
2022-09-03T08:17:09.819Z,79.88
2022-09-03T08:19:59.131Z,78.74
2022-09-03T08:22:48.425Z,75.50
2022-09-03T08:25:38.937Z,75.97
2022-09-03T08:28:28.218Z,76.04
2022-09-03T08:31:20.128Z,76.11
2022-09-03T08:34:11.763Z,76.60
2022-09-03T08:37:02.324Z,69.70
2022-09-03T08:39:51.483Z,68.70
2022-09-03T08:43:06.920Z,68.45
2022-09-03T08:45:56.549Z,69.67
2022-09-03T08:48:48.626Z,65.65
2022-09-03T08:51:40.429Z,65.43
2022-09-03T08:54:33.517Z,67.48
2022-09-03T08:57:23.369Z,64.60
2022-09-03T09:00:15.809Z,66.06
2022-09-03T09:03:31.092Z,66.88
2022-09-03T09:06:31.165Z,63.70
2022-09-03T09:09:32.931Z,64.62
2022-09-03T09:12:44.236Z,63.50
2022-09-03T09:15:51.693Z,62.34
2022-09-03T09:19:04.856Z,60.35
2022-09-03T09:22:00.229Z,62.59
2022-09-03T09:24:54.349Z,62.83
2022-09-03T09:27:53.499Z,60.08
2022-09-03T09:30:47.729Z,61.65
2022-09-03T09:33:37.615Z,61.38
2022-09-03T09:36:28.132Z,58.32
2022-09-03T09:39:17.604Z,57.88
2022-09-03T09:42:09.575Z,55.76
2022-09-03T09:44:58.995Z,54.48
2022-09-03T09:47:50.293Z,55.95
2022-09-03T09:50:39.481Z,53.69
2022-09-03T09:53:30.186Z,54.29
2022-09-03T09:56:25.354Z,56.52
2022-09-03T09:59:16.112Z,54.69
2022-09-03T10:02:17.080Z,53.33
2022-09-03T10:05:22.326Z,53.50
2022-09-03T10:08:22.600Z,50.78
2022-09-03T10:11:12.911Z,48.79
2022-09-03T10:14:04.386Z,51.55
2022-09-03T10:17:05.364Z,53.23
2022-09-03T10:20:31.171Z,52.87
2022-09-03T10:23:28.129Z,52.72
2022-09-03T10:26:32.100Z,50.18
2022-09-03T10:29:25.943Z,49.57
2022-09-03T10:32:39.359Z,49.63
2022-09-03T10:35:33.666Z,47.25
2022-09-03T10:38:34.158Z,51.07
2022-09-03T10:41:47.450Z,48.07
2022-09-03T10:45:02.205Z,50.56
2022-09-03T10:48:32.755Z,52.73
2022-09-03T10:51:28.866Z,50.58
2022-09-03T10:54:41.479Z,50.03
2022-09-03T10:57:50.130Z,50.34
2022-09-03T11:00:53.548Z,50.02
2022-09-03T11:03:49.360Z,47.50
2022-09-03T11:06:48.428Z,47.65
2022-09-03T11:09:45.214Z,47.81
2022-09-03T11:12:43.447Z,51.00
2022-09-03T11:15:38.936Z,49.05
2022-09-03T11:18:35.535Z,49.15
2022-09-03T11:21:30.010Z,48.91
2022-09-03T11:24:25.176Z,47.84
2022-09-03T11:27:33.165Z,49.13
2022-09-03T11:30:30.174Z,50.63
2022-09-03T11:33:25.603Z,48.99
2022-09-03T11:36:21.865Z,48.36
2022-09-03T11:39:25.160Z,51.24
2022-09-03T11:42:35.220Z,49.47
2022-09-03T11:45:37.637Z,49.71
2022-09-03T11:48:39.889Z,48.74
2022-09-03T11:51:38.107Z,48.77
2022-09-03T11:54:28.515Z,50.85
2022-09-03T11:57:29.228Z,47.19
2022-09-03T12:00:24.888Z,47.42
2022-09-03T12:03:18.783Z,46.74
2022-09-03T12:06:41.471Z,47.44
2022-09-03T12:10:09.787Z,47.01
2022-09-03T12:13:21.567Z,45.59
2022-09-03T12:16:48.964Z,47.94
2022-09-03T12:19:53.497Z,45.17
2022-09-03T12:22:44.819Z,48.49
2022-09-03T12:25:34.397Z,46.42
2022-09-03T12:28:26.127Z,46.88
2022-09-03T12:31:22.890Z,47.38
2022-09-03T12:34:17.789Z,45.49
2022-09-03T12:40:33.821Z,46.62
2022-09-03T12:43:49.913Z,44.31
2022-09-03T12:46:40.086Z,46.10
2022-09-03T12:49:37.778Z,46.99
2022-09-03T12:52:32.920Z,46.61
2022-09-03T12:55:40.433Z,47.38
2022-09-03T12:58:39.269Z,47.03
2022-09-03T13:01:34.937Z,48.48
2022-09-03T13:04:29.022Z,49.58
2022-09-03T13:07:34.285Z,51.73
2022-09-03T13:10:29.880Z,48.72
2022-09-03T13:13:25.773Z,52.77
2022-09-03T13:17:11.187Z,49.65
2022-09-03T13:20:24.184Z,49.87
2022-09-03T13:24:04.586Z,51.25
2022-09-03T13:27:12.245Z,50.30
2022-09-03T13:30:11.115Z,50.73
2022-09-03T13:33:10.602Z,51.12
2022-09-03T13:36:09.765Z,51.09
2022-09-03T13:39:06.226Z,52.53
2022-09-03T13:42:06.158Z,50.90
2022-09-03T13:45:06.710Z,51.15
2022-09-03T13:48:23.074Z,52.39
2022-09-03T13:51:23.586Z,52.42
2022-09-03T13:54:42.443Z,51.71
2022-09-03T13:57:40.821Z,52.46
2022-09-03T14:00:38.486Z,53.32
2022-09-03T14:03:39.118Z,55.11
2022-09-03T14:06:45.031Z,52.48
2022-09-03T14:09:48.946Z,54.72
2022-09-03T14:12:46.935Z,53.81
2022-09-03T14:15:46.981Z,54.41
2022-09-03T14:18:49.994Z,54.85
2022-09-03T14:21:48.779Z,53.64
2022-09-03T14:24:50.278Z,54.62
2022-09-03T14:27:39.679Z,53.71
2022-09-03T14:30:46.184Z,55.69
2022-09-03T14:33:47.493Z,56.26
2022-09-03T14:36:46.199Z,54.18
2022-09-03T14:39:54.079Z,56.28
2022-09-03T14:43:16.322Z,55.50
2022-09-03T14:46:24.351Z,55.22
2022-09-03T14:49:46.618Z,55.60
2022-09-03T14:52:59.451Z,56.40
2022-09-03T14:56:21.683Z,57.74
2022-09-03T14:59:41.787Z,57.20
2022-09-03T15:03:15.299Z,56.92
2022-09-03T15:06:31.069Z,58.44
2022-09-03T15:09:33.418Z,58.84
2022-09-03T15:12:34.382Z,58.71
2022-09-03T15:15:32.049Z,59.63
2022-09-03T15:18:33.346Z,61.56
2022-09-03T15:21:33.521Z,62.17
2022-09-03T15:24:39.081Z,63.17
2022-09-03T15:27:55.951Z,63.54
2022-09-03T15:30:57.544Z,63.82
2022-09-03T15:33:58.607Z,64.61
2022-09-03T15:36:55.841Z,64.82
2022-09-03T15:39:54.502Z,64.99
2022-09-03T15:42:49.040Z,66.43
2022-09-03T15:45:52.115Z,66.40
2022-09-03T15:48:51.764Z,66.39
2022-09-03T15:51:59.760Z,66.89
2022-09-03T15:55:03.898Z,67.91
2022-09-03T15:58:08.591Z,68.18
2022-09-03T16:01:03.573Z,68.33
2022-09-03T16:04:10.911Z,69.39
2022-09-03T16:07:10.412Z,70.71
2022-09-03T16:10:28.226Z,70.86
2022-09-03T16:13:40.190Z,72.36
2022-09-03T16:16:44.096Z,76.94
2022-09-03T16:19:46.321Z,81.25
2022-09-03T16:22:48.199Z,85.63
2022-09-03T16:25:51.435Z,88.21
2022-09-03T16:28:53.644Z,95.85
2022-09-03T16:32:18.748Z,93.96
2022-09-03T16:35:32.507Z,98.42
2022-09-03T16:38:39.492Z,100.00
2022-09-03T16:41:41.221Z,100.00
2022-09-03T16:44:50.614Z,100.00
2022-09-03T16:47:59.211Z,100.00
2022-09-03T16:51:09.857Z,100.00
2022-09-03T16:54:17.094Z,100.00
2022-09-03T16:57:25.410Z,100.00
2022-09-03T17:00:21.023Z,100.00
2022-09-03T17:03:48.846Z,100.00
2022-09-03T17:07:05.816Z,100.00
2022-09-03T17:10:09.093Z,100.00
2022-09-03T17:13:30.940Z,100.00
2022-09-03T17:16:39.392Z,100.00
2022-09-03T17:19:45.103Z,100.00
2022-09-03T17:22:54.414Z,100.00
2022-09-03T17:26:02.116Z,100.00
2022-09-03T17:29:10.889Z,100.00
2022-09-03T17:32:21.139Z,100.00
2022-09-03T17:35:18.905Z,100.00
2022-09-03T17:38:30.315Z,100.00
2022-09-03T17:41:33.609Z,100.00
2022-09-03T17:44:47.843Z,100.00
2022-09-03T17:48:05.520Z,100.00
2022-09-03T17:51:02.937Z,100.00
2022-09-03T17:54:01.670Z,100.00
2022-09-03T17:57:03.102Z,100.00
2022-09-03T17:59:58.939Z,100.00
2022-09-03T18:02:57.800Z,100.00
2022-09-03T18:05:54.767Z,100.00
2022-09-03T18:08:56.219Z,100.00
2022-09-03T18:11:51.493Z,100.00
2022-09-03T18:14:53.103Z,100.00
2022-09-03T18:17:52.703Z,100.00
2022-09-03T18:21:26.577Z,100.00
2022-09-03T18:24:51.145Z,100.00
2022-09-03T18:28:05.283Z,100.00
2022-09-03T18:31:12.046Z,100.00
2022-09-03T18:34:22.262Z,100.00
2022-09-03T18:37:29.477Z,100.00
2022-09-03T18:40:45.581Z,100.00
2022-09-03T18:44:06.308Z,100.00
2022-09-03T18:51:07.441Z,100.00
2022-09-03T18:54:56.964Z,100.00
2022-09-03T18:58:22.150Z,100.00
2022-09-03T19:01:40.403Z,100.00
2022-09-03T19:05:08.641Z,100.00
2022-09-03T19:08:28.085Z,100.00
2022-09-03T19:11:52.326Z,100.00
2022-09-03T19:15:15.031Z,100.00
2022-09-03T19:18:41.867Z,100.00
2022-09-03T19:21:59.879Z,100.00
2022-09-03T19:25:15.083Z,100.00
2022-09-03T19:28:33.656Z,100.00
2022-09-03T19:32:00.560Z,100.00
2022-09-03T19:35:30.715Z,100.00
2022-09-03T19:38:50.230Z,100.00
2022-09-03T19:42:09.225Z,100.00
2022-09-03T19:45:26.824Z,100.00
2022-09-03T19:48:51.129Z,100.00
2022-09-03T19:52:09.764Z,100.00
2022-09-03T19:55:18.766Z,100.00
2022-09-03T19:58:42.441Z,100.00
2022-09-03T20:01:53.485Z,100.00
2022-09-03T20:05:10.508Z,100.00
2022-09-03T20:08:18.668Z,100.00
2022-09-03T20:11:13.085Z,100.00
2022-09-03T20:14:17.698Z,100.00
2022-09-03T20:17:22.884Z,100.00
2022-09-03T20:20:24.929Z,100.00
2022-09-03T20:23:22.840Z,100.00
2022-09-03T20:26:35.106Z,100.00
2022-09-03T20:29:49.056Z,100.00
2022-09-03T20:33:12.548Z,100.00
2022-09-03T20:36:18.221Z,100.00
2022-09-03T20:39:30.456Z,100.00
2022-09-03T20:42:51.853Z,100.00
2022-09-03T20:46:02.302Z,100.00
2022-09-03T20:49:04.493Z,100.00
2022-09-03T20:52:07.412Z,100.00
2022-09-03T20:55:05.844Z,100.00
2022-09-03T20:58:07.106Z,100.00
2022-09-03T21:01:06.412Z,100.00
2022-09-03T21:04:15.681Z,100.00
2022-09-03T21:07:18.005Z,100.00
2022-09-03T21:10:17.965Z,100.00
2022-09-03T21:13:21.163Z,100.00
2022-09-03T21:16:34.457Z,100.00
2022-09-03T21:19:46.235Z,100.00
2022-09-03T21:22:52.624Z,100.00
2022-09-03T21:25:49.884Z,100.00
2022-09-03T21:28:42.907Z,100.00
2022-09-03T21:31:41.787Z,100.00
2022-09-03T21:34:39.325Z,100.00
2022-09-03T21:37:29.012Z,100.00
2022-09-03T21:40:24.270Z,100.00
2022-09-03T21:43:20.327Z,100.00
2022-09-03T21:46:16.204Z,100.00
2022-09-03T21:49:11.044Z,100.00
2022-09-03T21:52:05.628Z,100.00
2022-09-03T21:54:55.177Z,100.00
2022-09-03T21:58:03.542Z,100.00
2022-09-03T22:00:59.891Z,100.00
2022-09-03T22:03:49.129Z,100.00
2022-09-03T22:06:54.659Z,100.00
2022-09-03T22:09:53.609Z,100.00
2022-09-03T22:12:57.020Z,100.00
2022-09-03T22:15:51.316Z,100.00
2022-09-03T22:18:41.262Z,100.00
2022-09-03T22:21:40.078Z,100.00
2022-09-03T22:24:43.626Z,100.00
2022-09-03T22:27:44.668Z,100.00
2022-09-03T22:30:47.024Z,100.00
2022-09-03T22:33:48.030Z,100.00
2022-09-03T22:36:44.682Z,100.00
2022-09-03T22:39:39.300Z,100.00
2022-09-03T22:42:53.610Z,100.00
2022-09-03T22:46:08.097Z,100.00
2022-09-03T22:49:22.074Z,100.00
2022-09-03T22:52:29.204Z,100.00
2022-09-03T22:55:25.396Z,100.00
2022-09-03T22:58:22.256Z,100.00
2022-09-03T23:01:20.785Z,100.00
2022-09-03T23:04:20.884Z,100.00
2022-09-03T23:07:23.399Z,100.00
2022-09-03T23:10:24.389Z,100.00
2022-09-03T23:13:22.071Z,100.00
2022-09-03T23:16:30.388Z,100.00
2022-09-03T23:19:30.503Z,100.00
2022-09-03T23:22:25.782Z,100.00
2022-09-03T23:25:21.138Z,100.00
2022-09-03T23:28:24.125Z,100.00
2022-09-03T23:31:20.209Z,100.00
2022-09-03T23:34:11.979Z,100.00
2022-09-03T23:37:42.015Z,100.00
2022-09-03T23:40:48.673Z,100.00
2022-09-03T23:44:05.175Z,100.00
2022-09-03T23:47:12.172Z,100.00
2022-09-03T23:50:17.814Z,100.00
2022-09-03T23:53:24.445Z,100.00
2022-09-03T23:56:46.789Z,100.00
